Time;durP1;ratioP1;P1;durP2;ratioP2;P2;SDS_P1;SDS_P2;PMS_P1;PMS_P2;Temp;Humidity;BMP_temperature;BMP_pressure;BME280_temperature;BME280_humidity;BME280_pressure;Samples;Min_cycle;Max_cycle;Signal;HPM_P1;HPM_P2
2021/01/04 00:00:07;;;;;;;149.47;65.73;;;;;;;2.54;85.29;100067.36;120156;1149;22991;-59
2021/01/04 00:03:18;;;;;;;122.00;57.83;;;;;;;2.54;85.42;100057.13;120011;1151;23026;-58
2021/01/04 00:05:58;;;;;;;114.37;55.50;;;;;;;2.53;85.03;100060.28;120080;1150;22965;-60
2021/01/04 00:09:06;;;;;;;111.83;51.90;;;;;;;2.53;85.35;100063.83;120007;1151;23174;-59
2021/01/04 00:11:51;;;;;;;115.43;54.77;;;;;;;2.50;85.03;100042.66;119964;1151;23230;-59
2021/01/04 00:14:34;;;;;;;133.03;58.80;;;;;;;2.54;85.33;100046.10;120113;1150;22892;-58
2021/01/04 00:17:16;;;;;;;108.80;52.57;;;;;;;2.59;85.70;100053.84;120143;1150;24375;-59
2021/01/04 00:19:54;;;;;;;106.57;51.07;;;;;;;2.58;85.06;100046.01;120106;1150;22923;-60
2021/01/04 00:22:33;;;;;;;116.70;55.90;;;;;;;2.58;85.39;100046.79;120285;1149;24461;-61
2021/01/04 00:25:13;;;;;;;107.47;49.93;;;;;;;2.59;85.42;100047.58;120034;1150;23138;-60
2021/01/04 00:27:46;;;;;;;;;;;;;;;2.61;85.24;100045.16;120133;1151;23048;-59
2021/01/04 00:30:22;;;;;;;110.50;50.73;;;;;;;2.63;85.46;100051.02;120091;1150;21576;-61
2021/01/04 00:32:55;;;;;;;105.83;48.13;;;;;;;2.62;84.96;100052.99;120262;1150;23357;-59
2021/01/04 00:35:27;;;;;;;102.13;50.57;;;;;;;2.63;84.93;100067.55;120161;1149;23308;-59
2021/01/04 00:38:50;;;;;;;115.15;55.20;;;;;;;2.63;85.33;100062.05;120562;1147;27296;-60
2021/01/04 00:41:25;;;;;;;124.97;56.77;;;;;;;2.59;85.12;100048.33;120190;1147;22952;-61
2021/01/04 00:43:59;;;;;;;125.93;56.40;;;;;;;2.54;84.96;100057.13;120288;1146;23087;-61
2021/01/04 00:46:34;;;;;;;115.60;54.45;;;;;;;2.57;85.62;100059.00;120469;1146;25963;-60
2021/01/04 00:49:12;;;;;;;136.65;63.60;;;;;;;2.62;85.34;100057.72;120302;1146;22909;-59
2021/01/04 00:51:49;;;;;;;121.70;61.33;;;;;;;2.60;85.16;100051.86;120312;1148;22966;-61
2021/01/04 00:54:39;;;;;;;126.43;59.63;;;;;;;2.60;85.30;100047.14;120270;1147;26739;-60
2021/01/04 00:57:45;;;;;;;106.67;52.73;;;;;;;2.53;84.87;100043.75;120293;1147;22952;-59
2021/01/04 01:00:22;;;;;;;113.60;54.03;;;;;;;2.47;85.22;100068.30;120256;1147;24489;-60
2021/01/04 01:03:20;;;;;;;104.30;51.40;;;;;;;2.44;85.39;100071.92;120224;1148;23074;-59
2021/01/04 01:06:02;;;;;;;103.57;48.53;;;;;;;2.49;85.29;100054.86;120308;1148;22917;-59
2021/01/04 01:08:35;;;;;;;107.97;51.40;;;;;;;2.51;85.16;100059.94;120171;1147;22926;-61
2021/01/04 01:11:12;;;;;;;106.30;51.60;;;;;;;2.51;85.14;100081.98;120222;1147;22928;-61
2021/01/04 01:13:57;;;;;;;110.17;52.63;;;;;;;2.50;85.06;100072.96;120344;1148;23080;-59
2021/01/04 01:17:02;;;;;;;111.43;54.70;;;;;;;2.51;84.92;100063.48;120383;1146;26382;-61
2021/01/04 01:19:41;;;;;;;112.37;56.07;;;;;;;2.51;85.35;100060.72;120266;1148;22924;-59
2021/01/04 01:22:15;;;;;;;99.35;50.55;;;;;;;2.55;85.30;100052.36;120279;1148;23383;-60
2021/01/04 01:24:46;;;;;;;102.77;50.00;;;;;;;2.51;85.27;100054.43;120293;1146;22913;-59
2021/01/04 01:27:41;;;;;;;99.33;50.10;;;;;;;2.51;85.27;100062.70;120275;1147;28796;-59
2021/01/04 01:30:48;;;;;;;100.50;49.70;;;;;;;2.49;85.06;100071.40;120274;1148;22913;-61
2021/01/04 01:33:45;;;;;;;96.03;46.97;;;;;;;2.48;85.21;100063.57;120341;1146;22916;-60
2021/01/04 01:36:32;;;;;;;135.00;61.43;;;;;;;2.46;85.34;100078.53;120081;1150;22937;-61
2021/01/04 01:39:26;;;;;;;122.57;56.83;;;;;;;2.39;85.38;100083.44;120079;1150;26200;-59
2021/01/04 01:42:22;;;;;;;111.23;53.63;;;;;;;2.36;85.48;100074.05;119990;1151;22957;-60
2021/01/04 01:45:02;;;;;;;99.83;51.10;;;;;;;2.36;85.31;100076.80;119991;1151;22932;-59
2021/01/04 01:47:42;;;;;;;104.50;51.13;;;;;;;2.38;85.18;100081.88;120136;1150;22958;-61
2021/01/04 01:50:18;;;;;;;;;;;;;;;2.38;85.28;100059.83;120101;1149;22925;-61
2021/01/04 01:52:58;;;;;;;101.50;49.50;;;;;;;2.33;85.15;100068.63;120043;1150;22524;-60
2021/01/04 01:55:39;;;;;;;103.77;48.50;;;;;;;2.29;85.21;100070.67;119998;1150;24565;-60
2021/01/04 01:58:32;;;;;;;101.10;50.23;;;;;;;2.24;85.47;100071.95;120080;1150;28360;-60
2021/01/04 02:01:13;;;;;;;104.07;49.40;;;;;;;2.25;85.15;100081.00;119990;1150;23400;-60
2021/01/04 02:03:51;;;;;;;101.73;48.83;;;;;;;2.25;85.60;100083.75;120048;1150;23014;-60
2021/01/04 02:06:52;;;;;;;101.33;50.20;;;;;;;2.24;85.13;100090.45;120129;1150;23402;-59
2021/01/04 02:09:26;;;;;;;103.07;50.07;;;;;;;2.26;85.47;100082.53;120144;1150;26005;-59
2021/01/04 02:12:09;;;;;;;102.23;51.63;;;;;;;2.31;85.11;100082.05;120175;1149;24570;-59
2021/01/04 02:14:48;;;;;;;102.23;51.17;;;;;;;2.35;85.36;100089.03;120306;1150;22944;-59
2021/01/04 02:17:40;;;;;;;100.13;49.33;;;;;;;2.41;85.72;100079.06;120307;1147;27678;-59
2021/01/04 02:20:41;;;;;;;97.97;50.97;;;;;;;2.28;85.11;100069.89;120279;1147;22948;-61
2021/01/04 02:23:22;;;;;;;104.97;50.43;;;;;;;2.27;85.42;100071.11;120283;1148;22913;-60
2021/01/04 02:25:57;;;;;;;108.43;52.20;;;;;;;2.30;85.51;100061.98;120333;1147;22925;-60
2021/01/04 02:28:34;;;;;;;112.63;57.67;;;;;;;2.31;85.22;100063.55;120675;1146;22935;-60
2021/01/04 02:31:04;;;;;;;118.60;55.73;;;;;;;2.34;85.37;100059.14;120316;1147;26114;-60
2021/01/04 02:33:34;;;;;;;115.62;55.92;;;;;;;2.38;85.60;100074.39;120298;1147;27679;-60
2021/01/04 02:36:06;;;;;;;111.70;54.88;;;;;;;2.44;85.80;100078.19;120257;1147;27330;-61
2021/01/04 02:38:44;;;;;;;102.07;51.10;;;;;;;2.48;85.46;100069.08;120261;1147;23022;-61
2021/01/04 02:41:15;;;;;;;102.70;50.93;;;;;;;2.48;85.22;100059.59;120262;1148;22916;-60
2021/01/04 02:43:45;;;;;;;109.45;52.30;;;;;;;2.45;85.38;100073.45;120360;1148;26069;-60
2021/01/04 02:46:18;;;;;;;;;;;;;;;2.45;85.41;100074.23;120379;1146;23190;-61
2021/01/04 02:49:04;;;;;;;110.23;52.30;;;;;;;2.50;85.39;100059.19;120373;1147;21563;-60
2021/01/04 02:51:41;;;;;;;111.70;55.10;;;;;;;2.55;85.35;100060.63;120276;1146;25957;-60
2021/01/04 02:54:28;;;;;;;114.40;54.63;;;;;;;2.52;85.08;100050.48;120354;1147;22966;-60
2021/01/04 02:57:08;;;;;;;110.17;53.00;;;;;;;2.50;85.03;100056.43;120293;1147;26030;-61
2021/01/04 02:59:50;;;;;;;101.30;48.25;;;;;;;2.48;84.99;100064.35;120343;1147;22935;-61
2021/01/04 03:02:35;;;;;;;101.60;47.63;;;;;;;2.47;84.88;100071.05;120365;1146;22942;-60
2021/01/04 03:05:08;;;;;;;93.93;47.43;;;;;;;2.47;85.04;100071.05;120381;1147;26198;-60
2021/01/04 03:07:40;;;;;;;96.27;47.13;;;;;;;2.48;84.79;100070.61;120584;1146;22920;-60
2021/01/04 03:10:19;;;;;;;95.23;46.63;;;;;;;2.52;84.84;100072.53;120351;1147;23022;-60
2021/01/04 03:13:03;;;;;;;94.97;48.87;;;;;;;2.53;85.35;100068.55;120352;1146;26485;-59
2021/01/04 03:15:48;;;;;;;98.50;45.63;;;;;;;2.56;85.10;100068.49;120347;1148;23069;-59
2021/01/04 03:18:25;;;;;;;95.80;48.03;;;;;;;2.53;84.48;100061.07;120304;1147;22920;-59
2021/01/04 03:20:56;;;;;;;94.40;45.90;;;;;;;2.37;84.20;100061.05;120549;1147;27303;-59
2021/01/04 03:23:27;;;;;;;92.45;45.10;;;;;;;2.24;84.17;100047.16;120435;1147;23081;-59
2021/01/04 03:26:03;;;;;;;92.95;45.90;;;;;;;2.23;84.94;100056.64;120489;1146;24586;-60
2021/01/04 03:28:33;;;;;;;80.47;41.80;;;;;;;2.25;85.15;100067.23;120256;1147;22928;-60
2021/01/04 03:31:03;;;;;;;;;;;;;;;2.27;85.23;100075.84;120553;1146;24547;-60
2021/01/04 03:33:34;;;;;;;88.00;42.33;;;;;;;2.18;84.93;100070.91;120465;1146;21563;-60
2021/01/04 03:36:06;;;;;;;88.83;44.20;;;;;;;2.16;85.21;100076.06;120391;1147;22912;-59
2021/01/04 03:38:36;;;;;;;89.07;43.77;;;;;;;2.16;85.40;100089.84;120439;1147;22920;-60
2021/01/04 03:41:07;;;;;;;95.20;46.40;;;;;;;2.14;85.37;100078.47;120241;1147;22900;-59
2021/01/04 03:43:41;;;;;;;97.75;46.75;;;;;;;2.19;85.28;100075.20;120482;1148;23463;-60
2021/01/04 03:46:11;;;;;;;96.07;48.33;;;;;;;2.18;85.50;100070.91;120246;1148;27746;-60
2021/01/04 03:48:40;;;;;;;;;;;;;;;2.19;85.27;100074.45;120425;1148;24548;-58
2021/01/04 03:51:11;;;;;;;97.50;48.27;;;;;;;2.21;85.45;100078.33;120277;1147;21572;-61
2021/01/04 03:53:44;;;;;;;91.97;46.20;;;;;;;2.22;85.16;100085.38;120329;1146;27678;-60
2021/01/04 03:56:16;;;;;;;91.20;45.87;;;;;;;2.20;85.31;100079.52;120288;1148;23316;-60
2021/01/04 03:58:46;;;;;;;89.83;43.97;;;;;;;2.19;84.99;100082.70;120385;1148;23018;-61
2021/01/04 04:01:16;;;;;;;97.20;47.67;;;;;;;2.14;85.25;100086.73;120255;1148;27171;-61
2021/01/04 04:03:47;;;;;;;95.57;46.53;;;;;;;2.15;85.64;100084.77;120251;1147;22969;-62
2021/01/04 04:06:16;;;;;;;;;;;;;;;2.15;85.72;100091.02;120390;1147;22938;-58
2021/01/04 04:08:47;;;;;;;95.60;47.47;;;;;;;2.11;84.90;100084.06;120265;1147;21566;-60
2021/01/04 04:11:17;;;;;;;96.37;47.60;;;;;;;2.07;85.74;100095.13;120311;1147;23012;-59
2021/01/04 04:13:47;;;;;;;94.97;46.05;;;;;;;2.09;85.24;100087.22;120391;1146;25957;-61
2021/01/04 04:16:16;;;;;;;;;;;;;;;2.04;85.08;100075.94;120444;1147;22913;-60
2021/01/04 04:18:46;;;;;;;100.40;47.53;;;;;;;2.07;85.31;100072.34;120278;1147;23202;-61
2021/01/04 04:21:17;;;;;;;90.10;44.88;;;;;;;2.07;85.53;100073.09;120295;1148;24571;-61
2021/01/04 04:23:47;;;;;;;97.20;44.45;;;;;;;2.09;85.75;100069.94;120417;1146;22924;-59
2021/01/04 04:26:17;;;;;;;;;;;;;;;2.11;85.64;100070.30;120304;1146;22991;-61
2021/01/04 04:28:47;;;;;;;96.20;45.87;;;;;;;2.12;85.14;100071.83;120508;1146;21560;-60
2021/01/04 04:31:17;;;;;;;90.72;44.85;;;;;;;2.10;85.39;100065.97;120276;1147;22920;-61
2021/01/04 04:33:48;;;;;;;94.40;43.30;;;;;;;2.09;85.22;100069.94;120391;1147;24737;-60
2021/01/04 04:36:21;;;;;;;85.53;43.20;;;;;;;2.12;85.71;100077.34;120413;1146;27067;-59
2021/01/04 04:38:52;;;;;;;84.73;41.77;;;;;;;2.14;84.93;100069.42;120374;1147;24596;-57
2021/01/04 04:41:32;;;;;;;93.93;44.30;;;;;;;2.11;85.26;100073.05;120464;1147;22966;-59
2021/01/04 04:44:08;;;;;;;83.87;43.63;;;;;;;2.10;85.68;100060.47;120327;1148;23103;-59
2021/01/04 04:46:50;;;;;;;86.03;42.83;;;;;;;2.11;85.44;100068.30;120404;1146;22966;-60
2021/01/04 04:49:39;;;;;;;90.27;44.57;;;;;;;2.13;85.24;100076.16;120333;1147;26616;-59
2021/01/04 04:52:26;;;;;;;94.27;45.37;;;;;;;2.13;85.53;100096.18;120329;1147;22909;-59
2021/01/04 04:55:11;;;;;;;92.35;46.65;;;;;;;2.20;85.47;100092.50;120301;1147;24596;-60
2021/01/04 04:57:53;;;;;;;90.83;47.53;;;;;;;2.27;85.46;100100.63;120448;1147;22884;-61
2021/01/04 05:01:04;;;;;;;97.70;50.40;;;;;;;2.34;85.97;100090.22;120268;1147;22927;-61
2021/01/04 05:03:45;;;;;;;;;;;;;;;2.42;85.18;100096.38;120075;1150;22948;-60
2021/01/04 05:06:32;;;;;;;100.77;54.17;;;;;;;2.45;85.46;100092.75;119991;1150;23303;-61
2021/01/04 05:09:33;;;;;;;124.60;62.05;;;;;;;2.44;85.76;100097.47;120241;1149;24554;-59
2021/01/04 05:12:08;;;;;;;114.33;55.53;;;;;;;2.47;85.15;100101.36;120152;1149;23206;-59
2021/01/04 05:14:50;;;;;;;108.33;54.03;;;;;;;2.49;85.57;100098.95;120073;1150;22937;-59
2021/01/04 05:17:46;;;;;;;103.53;53.80;;;;;;;2.53;84.98;100105.16;120087;1149;22990;-59
2021/01/04 05:20:39;;;;;;;108.87;53.30;;;;;;;2.57;84.94;100108.61;120029;1150;22977;-61
2021/01/04 05:23:43;;;;;;;109.70;54.37;;;;;;;2.53;85.09;100093.35;120038;1149;23020;-59
2021/01/04 05:26:41;;;;;;;107.43;53.20;;;;;;;2.42;85.00;100099.88;119684;1151;24364;-59
2021/01/04 05:29:38;;;;;;;100.27;49.67;;;;;;;2.45;85.52;100099.04;119772;1151;24611;-60
2021/01/04 05:32:33;;;;;;;95.75;47.65;;;;;;;2.46;84.92;100102.58;119628;1151;24610;-61
2021/01/04 05:35:06;;;;;;;83.87;44.13;;;;;;;2.40;84.86;100091.27;119963;1151;22960;-60
2021/01/04 05:37:48;;;;;;;90.73;45.80;;;;;;;2.37;85.16;100094.89;120115;1149;25973;-60
2021/01/04 05:40:47;;;;;;;87.53;42.93;;;;;;;2.32;84.84;100094.59;120065;1149;23071;-60
2021/01/04 05:43:27;;;;;;;85.03;42.73;;;;;;;2.32;85.42;100103.64;120129;1150;22927;-60
2021/01/04 05:46:02;;;;;;;81.97;40.73;;;;;;;2.31;85.18;100107.62;120048;1149;23387;-60
2021/01/04 05:48:47;;;;;;;85.10;42.40;;;;;;;2.30;85.19;100114.31;120071;1150;22939;-59
2021/01/04 05:51:21;;;;;;;94.27;47.13;;;;;;;2.28;85.08;100124.20;120212;1149;22954;-60
2021/01/04 05:53:52;;;;;;;94.30;46.77;;;;;;;2.29;85.20;100107.27;120242;1149;26024;-61
2021/01/04 05:56:24;;;;;;;86.97;43.08;;;;;;;2.26;85.04;100119.13;120129;1149;22951;-64
2021/01/04 05:59:07;;;;;;;88.03;44.33;;;;;;;2.24;85.29;100123.50;119966;1149;27270;-61
2021/01/04 06:01:39;;;;;;;97.93;47.50;;;;;;;2.21;85.15;100125.16;120108;1150;22961;-65
2021/01/04 06:04:13;;;;;;;104.67;50.00;;;;;;;2.20;85.09;100129.09;120310;1148;22928;-63
2021/01/04 06:06:53;;;;;;;108.17;52.47;;;;;;;2.22;85.67;100128.66;120279;1148;23207;-63
2021/01/04 06:09:25;;;;;;;110.85;53.65;;;;;;;2.17;85.45;100126.42;120366;1146;29084;-63
2021/01/04 06:11:58;;;;;;;124.90;62.85;;;;;;;2.15;85.23;100137.84;120339;1147;23053;-72
2021/01/04 06:14:31;;;;;;;115.30;58.63;;;;;;;2.11;85.14;100134.38;120588;1146;22935;-63
2021/01/04 06:17:04;;;;;;;122.40;59.63;;;;;;;2.13;85.81;100142.24;120497;1147;22924;-62
2021/01/04 06:19:38;;;;;;;107.70;52.27;;;;;;;2.14;85.78;100146.53;120178;1147;25986;-62
2021/01/04 06:22:11;;;;;;;100.07;48.10;;;;;;;2.13;85.58;100145.75;123874;1146;26376;-63
2021/01/04 06:24:44;;;;;;;93.83;44.40;;;;;;;2.14;85.40;100154.80;120197;1147;27331;-64
2021/01/04 06:27:16;;;;;;;80.67;42.00;;;;;;;2.15;85.76;100156.36;120296;1147;26611;-64
2021/01/04 06:29:49;;;;;;;84.75;43.45;;;;;;;2.15;85.73;100146.09;120322;1147;22913;-63
2021/01/04 06:32:28;;;;;;;88.80;42.97;;;;;;;2.21;85.57;100147.19;120413;1147;22913;-62
2021/01/04 06:35:20;;;;;;;84.57;43.50;;;;;;;2.20;85.57;100147.59;120294;1148;22924;-62
2021/01/04 06:38:02;;;;;;;89.70;42.77;;;;;;;2.18;85.08;100142.52;120496;1147;22992;-62
2021/01/04 06:40:36;;;;;;;89.07;44.63;;;;;;;2.20;85.60;100142.08;120336;1147;25967;-63
2021/01/04 06:43:20;;;;;;;88.83;45.20;;;;;;;2.20;85.37;100142.86;120549;1147;22927;-62
2021/01/04 06:46:01;;;;;;;85.63;44.87;;;;;;;2.19;85.20;100138.54;120357;1146;22914;-63
2021/01/04 06:48:38;;;;;;;88.47;42.67;;;;;;;2.15;85.51;100137.84;120263;1146;22938;-63
2021/01/04 06:51:37;;;;;;;91.30;46.20;;;;;;;2.11;85.77;100145.40;120262;1148;22898;-63
2021/01/04 06:54:39;;;;;;;97.47;47.23;;;;;;;2.11;85.35;100141.89;120308;1146;22920;-63
2021/01/04 06:57:52;;;;;;;91.17;43.13;;;;;;;2.02;85.31;100144.42;120011;1150;22943;-63
2021/01/04 07:00:41;;;;;;;88.70;45.80;;;;;;;1.92;85.52;100151.70;119694;1153;24630;-64
2021/01/04 07:03:36;;;;;;;90.27;45.60;;;;;;;1.92;85.64;100148.95;119629;1153;24573;-63
2021/01/04 07:06:35;;;;;;;96.70;45.03;;;;;;;1.90;85.41;100164.33;119642;1153;27249;-64
2021/01/04 07:09:24;;;;;;;91.10;44.57;;;;;;;1.96;85.74;100176.40;119697;1152;22957;-64
2021/01/04 07:12:02;;;;;;;91.90;47.33;;;;;;;1.97;85.96;100180.69;119788;1153;22956;-64
2021/01/04 07:15:15;;;;;;;95.90;48.90;;;;;;;1.98;86.26;100179.50;119687;1154;22978;-64
2021/01/04 07:18:36;;;;;;;104.50;51.40;;;;;;;2.01;85.69;100171.17;120010;1152;27704;-64
2021/01/04 07:21:16;;;;;;;107.22;50.40;;;;;;;1.99;85.93;100173.57;119401;1154;23199;-64
2021/01/04 07:24:13;;;;;;;99.25;48.87;;;;;;;2.02;85.91;100171.95;119444;1157;22972;-64
2021/01/04 07:26:56;;;;;;;101.13;50.83;;;;;;;2.01;85.88;100178.64;119426;1156;22973;-64
2021/01/04 07:29:55;;;;;;;95.30;47.20;;;;;;;2.00;86.02;100177.89;119375;1154;23090;-64
2021/01/04 07:32:41;;;;;;;95.77;49.50;;;;;;;2.01;85.81;100179.42;119387;1154;24601;-64
2021/01/04 07:35:17;;;;;;;95.13;47.03;;;;;;;2.03;85.92;100185.29;119747;1154;26639;-62
2021/01/04 07:38:02;;;;;;;100.30;50.90;;;;;;;2.03;85.90;100193.55;119884;1153;22930;-63
2021/01/04 07:40:44;;;;;;;104.87;50.90;;;;;;;2.02;86.05;100193.98;120038;1150;23368;-62
2021/01/04 07:43:42;;;;;;;95.27;49.37;;;;;;;2.00;85.68;100194.41;120013;1149;22907;-64
2021/01/04 07:46:56;;;;;;;97.27;47.00;;;;;;;1.99;86.08;100201.10;120010;1150;24780;-64
2021/01/04 07:49:56;;;;;;;99.43;47.30;;;;;;;2.00;86.48;100193.63;120011;1149;22949;-63
2021/01/04 07:52:47;;;;;;;99.10;49.27;;;;;;;2.01;86.23;100193.20;120225;1148;23077;-64
2021/01/04 07:55:51;;;;;;;97.10;48.10;;;;;;;1.99;85.94;100183.80;120275;1146;25967;-64
2021/01/04 07:58:56;;;;;;;97.90;47.37;;;;;;;1.93;85.77;100194.53;120006;1151;22956;-64
2021/01/04 08:02:04;;;;;;;95.10;47.87;;;;;;;1.94;86.42;100189.81;120215;1150;22946;-65
2021/01/04 08:05:00;;;;;;;101.83;50.70;;;;;;;1.96;85.97;100201.96;120038;1150;23020;-65
2021/01/04 08:07:52;;;;;;;94.03;48.90;;;;;;;2.01;86.14;100204.21;120144;1150;23084;-64
2021/01/04 08:10:49;;;;;;;96.13;49.00;;;;;;;2.04;85.86;100200.63;120177;1149;24592;-64
2021/01/04 08:14:16;;;;;;;96.80;49.33;;;;;;;2.06;86.24;100197.44;120074;1150;23131;-64
2021/01/04 08:16:52;;;;;;;93.50;46.07;;;;;;;2.11;86.02;100196.97;119698;1151;22964;-65
2021/01/04 08:19:24;;;;;;;101.23;48.67;;;;;;;2.14;86.23;100199.64;119998;1151;22991;-65
2021/01/04 08:22:06;;;;;;;99.83;48.57;;;;;;;2.15;86.18;100203.94;119738;1151;22992;-65
2021/01/04 08:24:42;;;;;;;98.40;49.43;;;;;;;2.18;86.44;100205.86;119809;1151;22950;-65
2021/01/04 08:27:32;;;;;;;103.40;49.67;;;;;;;2.24;86.27;100204.16;119749;1151;27396;-65
2021/01/04 08:30:14;;;;;;;108.03;51.88;;;;;;;2.33;86.24;100212.65;119646;1151;22952;-64
2021/01/04 08:32:53;;;;;;;148.10;67.25;;;;;;;2.39;86.23;100212.92;119758;1151;22935;-63
2021/01/04 08:35:38;;;;;;;202.03;90.43;;;;;;;2.43;86.14;100217.16;119941;1151;27065;-64
2021/01/04 08:38:31;;;;;;;135.83;66.20;;;;;;;2.52;86.29;100213.84;120099;1150;26781;-64
2021/01/04 08:41:07;;;;;;;109.70;52.93;;;;;;;2.53;85.98;100211.84;119993;1150;22946;-64
2021/01/04 08:43:41;;;;;;;104.70;48.90;;;;;;;2.54;85.92;100216.17;120033;1150;22940;-64
2021/01/04 08:46:28;;;;;;;103.20;48.97;;;;;;;2.58;85.95;100209.38;120115;1150;22935;-65
2021/01/04 08:49:01;;;;;;;96.30;46.65;;;;;;;2.57;86.03;100221.59;120063;1150;24736;-63
2021/01/04 08:51:35;;;;;;;102.87;49.67;;;;;;;2.57;85.92;100223.56;120190;1147;26366;-64
2021/01/04 08:54:22;;;;;;;107.27;52.13;;;;;;;2.61;86.36;100224.30;120471;1146;22931;-64
2021/01/04 08:57:05;;;;;;;130.97;68.47;;;;;;;2.64;85.91;100223.43;120336;1147;27250;-64
2021/01/04 08:59:36;;;;;;;120.25;63.20;;;;;;;2.66;86.12;100223.78;120282;1147;23074;-64
2021/01/04 09:02:32;;;;;;;107.40;52.97;;;;;;;2.67;85.84;100228.11;120307;1147;22968;-64
2021/01/04 09:05:04;;;;;;;105.87;51.50;;;;;;;2.66;85.99;100232.83;120292;1147;22951;-64
2021/01/04 09:07:46;;;;;;;110.53;51.60;;;;;;;2.68;85.92;100227.67;120349;1146;24735;-65
2021/01/04 09:10:21;;;;;;;108.30;52.03;;;;;;;2.68;85.79;100224.91;120307;1147;23014;-63
2021/01/04 09:12:56;;;;;;;100.67;49.33;;;;;;;2.69;86.18;100233.97;120350;1148;22993;-64
2021/01/04 09:15:33;;;;;;;106.90;52.10;;;;;;;2.66;86.00;100237.56;120509;1146;22969;-63
2021/01/04 09:18:23;;;;;;;113.87;54.03;;;;;;;2.68;86.24;100233.19;120348;1148;26401;-64
2021/01/04 09:20:59;;;;;;;103.40;52.88;;;;;;;2.69;86.04;100239.48;120429;1147;27100;-63
2021/01/04 09:23:33;;;;;;;115.03;57.53;;;;;;;2.71;86.14;100231.56;120194;1147;22925;-64
2021/01/04 09:26:26;;;;;;;107.37;52.53;;;;;;;2.68;86.04;100229.64;120402;1147;26351;-63
2021/01/04 09:29:24;;;;;;;108.07;50.67;;;;;;;2.68;86.32;100233.19;120268;1148;23028;-63
2021/01/04 09:32:02;;;;;;;101.35;49.95;;;;;;;2.69;86.38;100234.72;120400;1146;25957;-64
2021/01/04 09:34:34;;;;;;;105.75;50.45;;;;;;;2.70;85.99;100238.27;120426;1147;24586;-63
2021/01/04 09:37:07;;;;;;;106.10;52.07;;;;;;;2.69;86.22;100240.23;120418;1146;22945;-63
2021/01/04 09:39:39;;;;;;;123.63;54.57;;;;;;;2.71;86.06;100248.10;120376;1148;22913;-64
2021/01/04 09:42:16;;;;;;;150.23;65.73;;;;;;;2.69;86.14;100245.75;120337;1148;23002;-64
2021/01/04 09:44:46;;;;;;;135.93;63.47;;;;;;;2.69;86.38;100237.48;120299;1147;22929;-64
2021/01/04 09:47:26;;;;;;;110.70;53.93;;;;;;;2.72;86.24;100239.40;120557;1146;23074;-63
2021/01/04 09:50:04;;;;;;;99.53;50.40;;;;;;;2.76;86.45;100231.05;120364;1147;27764;-64
2021/01/04 09:52:42;;;;;;;100.10;47.73;;;;;;;2.78;86.40;100231.39;120342;1147;22879;-63
2021/01/04 09:55:15;;;;;;;97.80;47.87;;;;;;;2.75;86.13;100221.23;120362;1147;26091;-63
2021/01/04 09:57:46;;;;;;;98.27;48.00;;;;;;;2.75;86.55;100221.99;120384;1146;27316;-62
2021/01/04 10:00:23;;;;;;;100.37;49.47;;;;;;;2.74;86.22;100209.42;120350;1148;22916;-63
2021/01/04 10:03:01;;;;;;;95.60;46.65;;;;;;;2.74;86.32;100203.13;120429;1152;22969;-63
2021/01/04 10:05:37;;;;;;;97.57;47.57;;;;;;;2.73;86.36;100202.34;120466;1146;26487;-63
2021/01/04 10:08:14;;;;;;;96.80;48.77;;;;;;;2.74;86.19;100197.62;120299;1146;22912;-64
2021/01/04 10:10:56;;;;;;;102.57;53.00;;;;;;;2.76;86.52;100198.75;120314;1147;22921;-63
2021/01/04 10:13:30;;;;;;;110.73;53.47;;;;;;;2.78;86.32;100201.07;120628;1146;22942;-64
2021/01/04 10:16:05;;;;;;;104.27;53.53;;;;;;;2.80;86.51;100195.91;120365;1147;23010;-64
2021/01/04 10:18:45;;;;;;;139.13;70.40;;;;;;;2.79;86.37;100192.39;120402;1147;26401;-63
2021/01/04 10:21:18;;;;;;;136.68;68.37;;;;;;;2.80;86.25;100190.39;120464;1148;22949;-63
2021/01/04 10:23:54;;;;;;;116.67;55.60;;;;;;;2.81;86.47;100181.72;120449;1147;22914;-64
2021/01/04 10:26:24;;;;;;;112.03;53.97;;;;;;;2.79;86.20;100181.37;120444;1146;24586;-64
2021/01/04 10:28:55;;;;;;;139.17;69.70;;;;;;;2.81;86.65;100178.17;120471;1147;22944;-63
2021/01/04 10:31:29;;;;;;;105.90;51.57;;;;;;;2.82;86.53;100179.72;120351;1147;22935;-64
2021/01/04 10:34:08;;;;;;;100.23;49.10;;;;;;;2.79;86.21;100172.31;120527;1146;22963;-63
2021/01/04 10:36:42;;;;;;;108.87;53.60;;;;;;;2.80;86.61;100182.13;120374;1146;25992;-62
2021/01/04 10:39:20;;;;;;;105.00;51.47;;;;;;;2.82;86.57;100169.47;120289;1146;22920;-63
2021/01/04 10:42:05;;;;;;;111.83;56.70;;;;;;;2.83;86.58;100167.49;120446;1146;22988;-63
2021/01/04 10:44:37;;;;;;;129.30;64.90;;;;;;;2.85;86.85;100165.87;120351;1148;22995;-62
2021/01/04 10:47:17;;;;;;;108.60;56.90;;;;;;;2.86;86.73;100180.41;120452;1147;23476;-64
2021/01/04 10:49:49;;;;;;;127.17;62.55;;;;;;;2.90;86.58;100175.59;120489;1146;22935;-62
2021/01/04 10:52:24;;;;;;;119.93;62.57;;;;;;;2.91;86.50;100172.42;120477;1146;22925;-63
2021/01/04 10:54:56;;;;;;;127.40;64.63;;;;;;;2.95;86.66;100167.60;120382;1147;22918;-64
2021/01/04 10:57:34;;;;;;;102.35;50.40;;;;;;;2.97;86.68;100161.65;120311;1148;22935;-68
2021/01/04 11:00:14;;;;;;;112.60;56.03;;;;;;;2.93;86.67;100169.23;120433;1147;22914;-64
2021/01/04 11:02:46;;;;;;;105.80;52.63;;;;;;;2.89;86.44;100166.56;120443;1147;22949;-64
2021/01/04 11:05:20;;;;;;;117.27;60.83;;;;;;;2.91;86.58;100169.67;120351;1148;23018;-63
2021/01/04 11:07:52;;;;;;;117.17;58.17;;;;;;;2.94;86.46;100170.77;120407;1148;24332;-63
2021/01/04 11:10:30;;;;;;;127.33;65.10;;;;;;;2.98;86.96;100183.27;120385;1147;23077;-63
2021/01/04 11:13:02;;;;;;;122.07;61.07;;;;;;;3.05;86.86;100179.58;120135;1146;22884;-63
2021/01/04 11:15:35;;;;;;;134.55;65.35;;;;;;;3.09;86.69;100181.05;120315;1146;22916;-61
2021/01/04 11:18:13;;;;;;;138.53;68.93;;;;;;;3.12;86.70;100184.94;120432;1147;22935;-63
2021/01/04 11:20:45;;;;;;;141.80;71.75;;;;;;;3.14;86.71;100183.31;120345;1146;24538;-62
2021/01/04 11:23:18;;;;;;;121.37;62.83;;;;;;;3.17;86.80;100182.44;120327;1148;22952;-63
2021/01/04 11:25:49;;;;;;;125.30;64.13;;;;;;;3.19;86.91;100185.54;120309;1147;22917;-63
2021/01/04 11:28:21;;;;;;;142.00;71.80;;;;;;;3.22;86.83;100179.17;120254;1148;22920;-62
2021/01/04 11:30:52;;;;;;;114.80;60.07;;;;;;;3.25;86.69;100180.27;120359;1146;24720;-64
2021/01/04 11:33:24;;;;;;;141.47;71.33;;;;;;;3.26;86.47;100168.05;120405;1146;23002;-64
2021/01/04 11:35:58;;;;;;;131.00;64.90;;;;;;;3.30;86.60;100171.49;120397;1148;22897;-64
2021/01/04 11:38:30;;;;;;;136.40;68.37;;;;;;;3.32;86.35;100168.30;120454;1147;22924;-62
2021/01/04 11:41:02;;;;;;;121.67;58.30;;;;;;;3.32;86.41;100169.08;120387;1147;23134;-63
2021/01/04 11:43:34;;;;;;;120.17;60.73;;;;;;;3.33;86.53;100165.13;120521;1148;22935;-62
2021/01/04 11:46:07;;;;;;;122.00;60.43;;;;;;;3.35;86.42;100157.19;120462;1148;22975;-62
2021/01/04 11:48:39;;;;;;;118.43;59.37;;;;;;;3.38;86.33;100156.31;120412;1147;22966;-63
2021/01/04 11:51:15;;;;;;;129.10;68.95;;;;;;;3.37;86.26;100151.23;120436;1146;22941;-61
2021/01/04 11:53:47;;;;;;;122.17;60.53;;;;;;;3.37;86.28;100151.23;120551;1147;22917;-63
2021/01/04 11:56:20;;;;;;;140.95;71.10;;;;;;;3.39;86.54;100155.12;120536;1147;27444;-62
2021/01/04 11:58:52;;;;;;;123.37;60.40;;;;;;;3.43;86.71;100157.78;120528;1146;22935;-62
2021/01/04 12:01:24;;;;;;;123.87;58.40;;;;;;;3.42;86.60;100159.76;120414;1148;22914;-62
2021/01/04 12:03:56;;;;;;;131.70;62.53;;;;;;;3.44;87.00;100157.34;120398;1147;22949;-63
2021/01/04 12:06:28;;;;;;;125.73;59.93;;;;;;;3.45;86.50;100156.14;120480;1147;25379;-62